Time;durP1;ratioP1;P1;durP2;ratioP2;P2;SDS_P1;SDS_P2;PMS_P1;PMS_P2;Temp;Humidity;BMP_temperature;BMP_pressure;BME280_temperature;BME280_humidity;BME280_pressure;Samples;Min_cycle;Max_cycle;Signal;HPM_P1;HPM_P2
2021/09/18 00:00:59;;;;;;;11.47;8.60;;;16.70;99.90;;;;;;5002204;28;20206;-51
2021/09/18 00:03:26;;;;;;;11.60;9.13;;;16.70;99.90;;;;;;5001133;28;20288;-51
2021/09/18 00:05:53;;;;;;;12.23;9.03;;;16.60;99.90;;;;;;5000540;28;20274;-51
2021/09/18 00:08:20;;;;;;;11.10;9.33;;;16.60;99.90;;;;;;5004820;28;20223;-52
2021/09/18 00:10:47;;;;;;;12.17;9.43;;;16.60;99.90;;;;;;4999831;28;20289;-51
2021/09/18 00:13:13;;;;;;;12.03;8.27;;;16.50;99.90;;;;;;5001509;28;20633;-51
2021/09/18 00:15:40;;;;;;;12.40;9.10;;;16.50;99.90;;;;;;5001837;28;20706;-51
2021/09/18 00:18:07;;;;;;;11.97;9.23;;;16.60;99.90;;;;;;4998400;28;20721;-51
2021/09/18 00:20:34;;;;;;;11.10;9.37;;;16.60;99.90;;;;;;5001896;28;20344;-51
2021/09/18 00:23:01;;;;;;;12.47;10.00;;;16.60;99.90;;;;;;4998594;28;20224;-52
2021/09/18 00:25:28;;;;;;;12.80;10.30;;;16.60;99.90;;;;;;4993312;28;20207;-51
2021/09/18 00:27:55;;;;;;;12.73;9.00;;;16.50;99.90;;;;;;5001430;28;20260;-51
2021/09/18 00:30:22;;;;;;;13.03;10.03;;;16.50;99.90;;;;;;4998651;28;20285;-52
2021/09/18 00:32:49;;;;;;;12.50;9.70;;;16.50;99.90;;;;;;5002120;28;20217;-52
2021/09/18 00:35:16;;;;;;;13.53;10.37;;;16.40;99.90;;;;;;5000325;28;20290;-51
2021/09/18 00:37:43;;;;;;;12.00;10.37;;;16.40;99.90;;;;;;5001149;28;20232;-51
2021/09/18 00:40:10;;;;;;;15.20;11.00;;;16.40;99.90;;;;;;4998371;28;20290;-51
2021/09/18 00:42:37;;;;;;;11.87;10.20;;;16.30;99.90;;;;;;5001453;28;20598;-51
2021/09/18 00:45:05;;;;;;;20.83;9.77;;;16.30;99.90;;;;;;5004916;28;20214;-51
2021/09/18 00:47:32;;;;;;;12.87;10.80;;;16.20;99.90;;;;;;5002903;28;20224;-52
2021/09/18 00:49:59;;;;;;;10.10;8.57;;;16.10;99.90;;;;;;5001326;28;20200;-51
2021/09/18 00:52:26;;;;;;;11.43;8.63;;;16.20;99.90;;;;;;5011991;28;21049;-51
2021/09/18 00:54:53;;;;;;;10.13;7.33;;;16.20;99.90;;;;;;4998675;28;20988;-51
2021/09/18 00:57:20;;;;;;;10.80;7.17;;;16.20;99.90;;;;;;5004502;28;20214;-51
2021/09/18 00:59:47;;;;;;;8.13;6.40;;;16.10;99.90;;;;;;5009903;28;20277;-51
2021/09/18 01:02:14;;;;;;;9.27;6.73;;;16.10;99.90;;;;;;5012367;28;20655;-51
2021/09/18 01:04:41;;;;;;;10.83;7.97;;;16.00;99.90;;;;;;5010737;28;20621;-52
2021/09/18 01:07:08;;;;;;;9.10;7.23;;;16.00;99.90;;;;;;5009556;28;20205;-51
2021/09/18 01:09:35;;;;;;;6.30;5.63;;;16.00;99.90;;;;;;5013237;28;20211;-51
2021/09/18 01:12:06;;;;;;;9.43;6.77;;;15.90;99.90;;;;;;5009275;28;20202;-51
2021/09/18 01:14:33;;;;;;;7.60;6.50;;;15.90;99.90;;;;;;5017342;28;20545;-51
2021/09/18 01:17:00;;;;;;;12.03;6.77;;;16.00;99.90;;;;;;5007865;28;20287;-51
2021/09/18 01:19:27;;;;;;;9.80;6.73;;;16.00;99.90;;;;;;5012554;28;20198;-51
2021/09/18 01:21:54;;;;;;;10.60;7.70;;;16.00;99.90;;;;;;5010207;28;20239;-51
2021/09/18 01:24:21;;;;;;;10.23;7.03;;;16.00;99.90;;;;;;5011013;28;20227;-51
2021/09/18 01:26:48;;;;;;;8.40;6.77;;;16.00;99.90;;;;;;5009115;28;20276;-51
2021/09/18 01:29:15;;;;;;;8.13;6.97;;;16.00;99.90;;;;;;5012343;28;20308;-51
2021/09/18 01:31:45;;;;;;;8.50;6.00;;;16.00;99.90;;;;;;5014459;28;20540;-51
2021/09/18 01:34:18;;;;;;;8.80;5.57;;;15.90;99.90;;;;;;5008338;28;20238;-51
2021/09/18 01:36:46;;;;;;;9.40;6.67;;;15.90;99.90;;;;;;5008932;28;20276;-51
2021/09/18 01:39:14;;;;;;;8.23;6.57;;;15.90;99.90;;;;;;5009090;28;20209;-51
2021/09/18 01:41:43;;;;;;;10.27;7.47;;;15.90;99.90;;;;;;5014353;28;20640;-51
2021/09/18 01:44:15;;;;;;;10.97;8.23;;;15.80;99.90;;;;;;5007032;28;20211;-51
2021/09/18 01:46:42;;;;;;;9.53;7.73;;;15.80;99.90;;;;;;5002478;28;20662;-51
2021/09/18 01:49:18;;;;;;;13.83;9.50;;;15.80;99.90;;;;;;5011458;28;20297;-51
2021/09/18 01:52:00;;;;;;;12.23;9.00;;;15.80;99.90;;;;;;5008650;28;20366;-51
2021/09/18 01:54:28;;;;;;;11.63;8.93;;;15.80;99.90;;;;;;5007613;28;20231;-51
2021/09/18 01:56:55;;;;;;;11.93;9.00;;;15.70;99.90;;;;;;5009291;28;20348;-51
2021/09/18 01:59:22;;;;;;;11.97;9.27;;;15.70;99.90;;;;;;5008875;28;20224;-51
2021/09/18 02:01:49;;;;;;;11.93;9.67;;;15.70;99.90;;;;;;5010801;28;20656;-51
2021/09/18 02:04:16;;;;;;;9.97;8.37;;;15.80;99.90;;;;;;5010745;28;20309;-51
2021/09/18 02:06:42;;;;;;;11.07;8.80;;;15.80;99.90;;;;;;5013118;28;20278;-51
2021/09/18 02:09:09;;;;;;;12.00;9.33;;;15.70;99.90;;;;;;5012453;28;20691;-51
2021/09/18 02:11:36;;;;;;;10.90;8.73;;;15.70;99.90;;;;;;5010657;28;20246;-51
2021/09/18 02:14:03;;;;;;;12.27;9.63;;;15.70;99.90;;;;;;5008925;28;20211;-51
2021/09/18 02:16:30;;;;;;;11.00;9.30;;;15.70;99.90;;;;;;5008439;28;20235;-51
2021/09/18 02:18:57;;;;;;;12.00;10.27;;;15.70;99.90;;;;;;5006614;28;20218;-51
2021/09/18 02:21:23;;;;;;;11.80;10.37;;;15.70;99.90;;;;;;5011222;28;20275;-52
2021/09/18 02:23:50;;;;;;;12.90;10.40;;;15.70;99.90;;;;;;5005712;28;20652;-52
2021/09/18 02:26:17;;;;;;;14.07;10.17;;;15.70;99.90;;;;;;5012730;28;20197;-51
2021/09/18 02:28:44;;;;;;;13.63;10.50;;;15.70;99.90;;;;;;5005040;28;20194;-51
2021/09/18 02:31:11;;;;;;;17.30;12.77;;;15.70;99.90;;;;;;5007354;28;20203;-51
2021/09/18 02:33:38;;;;;;;18.60;14.13;;;15.60;99.90;;;;;;5015984;28;20205;-51
2021/09/18 02:36:04;;;;;;;17.57;14.33;;;15.60;99.90;;;;;;5012442;28;20210;-51
2021/09/18 02:38:31;;;;;;;18.23;12.27;;;15.60;99.90;;;;;;5003071;28;20302;-51
2021/09/18 02:40:58;;;;;;;17.67;13.20;;;15.60;99.90;;;;;;5005341;28;20599;-51
2021/09/18 02:43:25;;;;;;;14.00;9.90;;;15.60;99.90;;;;;;5007952;28;20277;-51
2021/09/18 02:45:51;;;;;;;11.00;8.30;;;15.50;99.90;;;;;;5011216;28;20586;-51
2021/09/18 02:48:18;;;;;;;10.37;8.13;;;15.50;99.90;;;;;;5018230;28;20295;-51
2021/09/18 02:50:45;;;;;;;10.00;7.63;;;15.50;99.90;;;;;;5008822;28;20254;-51
2021/09/18 02:53:12;;;;;;;11.07;7.57;;;15.40;99.90;;;;;;5009422;28;20258;-51
2021/09/18 02:55:39;;;;;;;9.80;7.70;;;15.30;99.90;;;;;;5001341;28;20276;-51
2021/09/18 02:58:06;;;;;;;10.13;7.73;;;15.20;99.90;;;;;;5009558;28;20195;-51
2021/09/18 03:00:33;;;;;;;10.40;8.00;;;15.30;99.90;;;;;;5010200;28;20362;-51
2021/09/18 03:02:59;;;;;;;8.50;6.07;;;15.30;99.90;;;;;;5007512;28;20583;-51
2021/09/18 03:05:27;;;;;;;9.00;6.67;;;15.30;99.90;;;;;;5009884;28;20211;-51
2021/09/18 03:07:53;;;;;;;12.43;7.83;;;15.20;99.90;;;;;;5009920;28;20250;-52
2021/09/18 03:10:20;;;;;;;12.80;8.87;;;15.20;99.90;;;;;;5006965;28;20788;-52
2021/09/18 03:12:47;;;;;;;12.17;9.23;;;15.20;99.90;;;;;;5011668;28;20226;-51
2021/09/18 03:15:14;;;;;;;16.30;9.30;;;15.20;99.90;;;;;;5007486;28;20206;-51
2021/09/18 03:17:41;;;;;;;13.43;10.00;;;15.30;99.90;;;;;;5011311;28;20237;-51
2021/09/18 03:20:08;;;;;;;11.37;9.27;;;15.40;99.90;;;;;;5008884;28;20256;-51
2021/09/18 03:22:35;;;;;;;11.90;9.53;;;15.40;99.90;;;;;;5006529;28;20605;-51
2021/09/18 03:25:04;;;;;;;17.60;12.20;;;15.40;99.90;;;;;;4995463;28;20215;-51
2021/09/18 03:27:31;;;;;;;25.50;17.10;;;15.40;99.90;;;;;;5006770;28;20279;-51
2021/09/18 03:29:57;;;;;;;29.27;19.70;;;15.30;99.90;;;;;;4996981;28;20713;-51
2021/09/18 03:32:24;;;;;;;28.10;19.30;;;15.30;99.90;;;;;;5006818;28;20268;-51
2021/09/18 03:34:51;;;;;;;32.63;21.60;;;15.30;99.90;;;;;;5010931;28;20300;-51
2021/09/18 03:37:18;;;;;;;34.40;22.07;;;15.40;99.90;;;;;;5008373;28;20305;-51
2021/09/18 03:39:45;;;;;;;32.87;20.63;;;15.50;99.90;;;;;;5001370;28;20915;-51
2021/09/18 03:42:12;;;;;;;36.13;23.17;;;15.50;99.90;;;;;;5010886;28;20236;-51
2021/09/18 03:44:38;;;;;;;32.50;21.77;;;15.50;99.90;;;;;;5004795;28;20759;-51
2021/09/18 03:47:05;;;;;;;32.10;21.90;;;15.50;99.90;;;;;;5005388;28;20335;-51
2021/09/18 03:49:32;;;;;;;34.30;22.37;;;15.50;99.90;;;;;;5011084;28;20205;-51
2021/09/18 03:51:59;;;;;;;34.73;23.70;;;15.50;99.90;;;;;;5012623;28;20190;-51
2021/09/18 03:54:26;;;;;;;35.43;22.77;;;15.50;99.90;;;;;;5007726;28;20198;-51
2021/09/18 03:56:53;;;;;;;32.73;22.70;;;15.50;99.90;;;;;;5006295;28;20274;-51
2021/09/18 03:59:21;;;;;;;34.77;23.77;;;15.50;99.90;;;;;;5008873;28;20232;-51
2021/09/18 04:01:48;;;;;;;34.30;22.77;;;15.40;99.90;;;;;;5006600;28;20673;-51
2021/09/18 04:04:15;;;;;;;31.43;21.50;;;15.40;99.90;;;;;;5003574;28;20232;-51
2021/09/18 04:06:42;;;;;;;34.93;22.57;;;15.50;99.90;;;;;;5007955;28;20685;-51
2021/09/18 04:09:09;;;;;;;35.67;22.97;;;15.50;99.90;;;;;;5002035;28;20292;-51
2021/09/18 04:11:36;;;;;;;37.87;23.47;;;15.60;99.90;;;;;;5010595;28;20560;-51
2021/09/18 04:14:03;;;;;;;31.77;21.87;;;15.70;99.90;;;;;;5009463;28;20214;-51
2021/09/18 04:16:29;;;;;;;35.07;23.37;;;15.60;99.90;;;;;;5004903;28;20468;-51
2021/09/18 04:18:56;;;;;;;35.93;22.83;;;15.50;99.90;;;;;;5007907;28;20960;-51
2021/09/18 04:21:23;;;;;;;33.23;23.57;;;15.50;99.90;;;;;;5009237;28;20235;-51
2021/09/18 04:23:50;;;;;;;34.93;23.60;;;15.50;99.90;;;;;;5001429;28;20386;-51
2021/09/18 04:26:17;;;;;;;36.10;22.47;;;15.50;99.90;;;;;;5008070;28;20214;-51
2021/09/18 04:28:44;;;;;;;35.67;22.97;;;15.50;99.90;;;;;;5000192;28;20199;-51
2021/09/18 04:31:11;;;;;;;34.77;22.27;;;15.40;99.90;;;;;;5009150;28;20314;-51
2021/09/18 04:33:37;;;;;;;34.17;23.67;;;15.40;99.90;;;;;;5002828;28;20220;-51
2021/09/18 04:36:05;;;;;;;36.10;24.43;;;15.40;99.90;;;;;;5008269;28;20223;-51
2021/09/18 04:38:32;;;;;;;36.63;24.87;;;15.40;99.90;;;;;;5006215;28;20255;-51
2021/09/18 04:40:59;;;;;;;32.87;22.53;;;15.40;99.90;;;;;;5009681;28;20207;-51
2021/09/18 04:43:26;;;;;;;34.10;22.07;;;15.40;99.90;;;;;;5005588;28;20932;-52
2021/09/18 04:45:53;;;;;;;33.13;23.10;;;15.40;99.90;;;;;;5009310;28;20300;-51
2021/09/18 04:48:20;;;;;;;37.50;24.40;;;15.30;99.90;;;;;;5005618;28;20620;-51
2021/09/18 04:50:47;;;;;;;33.27;23.00;;;15.30;99.90;;;;;;5003595;28;20199;-51
2021/09/18 04:53:14;;;;;;;34.97;23.87;;;15.30;99.90;;;;;;5006322;28;20347;-51
2021/09/18 04:55:40;;;;;;;33.10;22.50;;;15.20;99.90;;;;;;5010591;28;20213;-51
2021/09/18 04:58:08;;;;;;;29.43;20.33;;;15.20;99.90;;;;;;5009979;28;20216;-52
2021/09/18 05:00:35;;;;;;;22.97;15.10;;;15.20;99.90;;;;;;5006812;28;20211;-51
2021/09/18 05:03:02;;;;;;;21.73;12.93;;;15.10;99.90;;;;;;5001257;28;20207;-51
2021/09/18 05:05:29;;;;;;;18.87;13.40;;;15.10;99.90;;;;;;5009659;28;20221;-51
2021/09/18 05:07:56;;;;;;;17.03;12.60;;;15.10;99.90;;;;;;5012066;28;20694;-51
2021/09/18 05:10:23;;;;;;;19.20;13.63;;;15.00;99.90;;;;;;5004151;28;20202;-51
2021/09/18 05:12:50;;;;;;;20.80;14.63;;;15.10;99.90;;;;;;5009315;28;20483;-51
2021/09/18 05:15:17;;;;;;;16.47;11.83;;;15.00;99.90;;;;;;5005662;28;20288;-51
2021/09/18 05:17:44;;;;;;;21.00;15.00;;;14.90;99.90;;;;;;5006329;28;20230;-51
2021/09/18 05:20:11;;;;;;;21.53;14.60;;;14.90;99.90;;;;;;5005619;28;20581;-51
2021/09/18 05:22:38;;;;;;;19.90;12.77;;;14.90;99.90;;;;;;5009529;28;20295;-51
2021/09/18 05:25:06;;;;;;;22.23;13.93;;;14.90;99.90;;;;;;5004586;28;20360;-51
2021/09/18 05:27:32;;;;;;;23.37;15.73;;;14.90;99.90;;;;;;5009888;28;20280;-51
2021/09/18 05:29:59;;;;;;;23.93;15.80;;;14.90;99.90;;;;;;5010043;28;20204;-51
2021/09/18 05:32:26;;;;;;;25.03;16.37;;;14.90;99.90;;;;;;5007456;28;20352;-51
2021/09/18 05:34:53;;;;;;;22.33;16.43;;;15.00;99.90;;;;;;5005389;28;20595;-51
2021/09/18 05:37:20;;;;;;;23.57;16.43;;;14.90;99.90;;;;;;5005608;28;20258;-51
2021/09/18 05:39:47;;;;;;;25.57;16.37;;;14.90;99.90;;;;;;5007099;28;20372;-51
2021/09/18 05:42:15;;;;;;;26.13;17.73;;;15.00;99.90;;;;;;5018207;28;20252;-51
2021/09/18 05:44:42;;;;;;;24.83;16.97;;;14.90;99.90;;;;;;5018236;28;20508;-51
2021/09/18 05:47:09;;;;;;;24.30;17.00;;;15.00;99.90;;;;;;5018954;28;20300;-51
2021/09/18 05:49:36;;;;;;;29.30;19.60;;;15.00;99.90;;;;;;5014886;28;20564;-52
2021/09/18 05:52:03;;;;;;;29.20;20.10;;;14.90;99.90;;;;;;5013271;28;20650;-51
2021/09/18 05:54:30;;;;;;;29.03;21.17;;;15.00;99.90;;;;;;5006420;28;20283;-51
2021/09/18 05:56:57;;;;;;;32.57;21.20;;;14.90;99.90;;;;;;5009447;28;20692;-51
2021/09/18 05:59:24;;;;;;;36.17;21.67;;;15.00;99.90;;;;;;5007374;28;20673;-52
2021/09/18 06:01:51;;;;;;;32.23;21.27;;;15.00;99.90;;;;;;5004228;28;20292;-51
2021/09/18 06:04:18;;;;;;;35.07;21.90;;;15.00;99.90;;;;;;5007195;28;20707;-51
2021/09/18 06:06:45;;;;;;;32.00;21.47;;;15.10;99.90;;;;;;5014050;28;20206;-51
2021/09/18 06:09:12;;;;;;;28.13;18.80;;;15.10;99.90;;;;;;5010951;28;20208;-51
2021/09/18 06:11:38;;;;;;;25.17;18.50;;;15.00;99.90;;;;;;5010548;28;20278;-51
2021/09/18 06:14:05;;;;;;;29.77;18.67;;;15.00;99.90;;;;;;5011099;28;20290;-51
2021/09/18 06:16:32;;;;;;;22.47;16.77;;;14.90;99.90;;;;;;5015252;28;20249;-51
2021/09/18 06:18:59;;;;;;;21.63;16.00;;;15.00;99.90;;;;;;5011669;28;20256;-51
2021/09/18 06:21:26;;;;;;;22.80;16.90;;;15.00;99.90;;;;;;5013255;28;20663;-51
2021/09/18 06:23:53;;;;;;;28.40;17.60;;;15.00;99.90;;;;;;4996525;28;20284;-51
2021/09/18 06:26:20;;;;;;;27.77;17.47;;;15.00;99.90;;;;;;5000074;28;20316;-51
2021/09/18 06:28:47;;;;;;;25.13;17.57;;;15.00;99.90;;;;;;5011402;28;20269;-51
2021/09/18 06:31:14;;;;;;;24.10;16.50;;;15.10;99.90;;;;;;5003548;28;20202;-51
2021/09/18 06:33:41;;;;;;;27.43;17.97;;;15.10;99.90;;;;;;5004934;28;20636;-51
2021/09/18 06:36:07;;;;;;;26.00;18.20;;;15.10;99.90;;;;;;5001128;28;20201;-51
2021/09/18 06:38:34;;;;;;;25.20;16.90;;;15.10;99.90;;;;;;5007867;28;20229;-51
2021/09/18 06:41:01;;;;;;;25.70;17.63;;;15.10;99.90;;;;;;5004239;28;20201;-51
2021/09/18 06:43:33;;;;;;;26.53;17.93;;;15.10;99.90;;;;;;5008278;28;21539;-51
2021/09/18 06:46:00;;;;;;;18.27;12.67;;;15.20;99.90;;;;;;4999159;28;20221;-51
2021/09/18 06:48:27;;;;;;;27.77;17.70;;;15.40;99.90;;;;;;5002390;28;20333;-51
2021/09/18 06:50:54;;;;;;;23.27;16.50;;;15.60;99.90;;;;;;5003312;28;20230;-51
2021/09/18 06:53:20;;;;;;;22.27;16.73;;;15.70;99.90;;;;;;5002076;28;20289;-51
2021/09/18 06:55:47;;;;;;;26.33;17.07;;;15.60;99.90;;;;;;5001760;28;20332;-51
2021/09/18 06:58:14;;;;;;;27.17;18.23;;;15.40;99.90;;;;;;5017213;28;20330;-51
2021/09/18 07:00:41;;;;;;;27.77;18.30;;;15.50;99.90;;;;;;4996495;28;20636;-51
2021/09/18 07:03:08;;;;;;;27.47;17.47;;;15.50;99.90;;;;;;4995629;28;20230;-51
2021/09/18 07:05:36;;;;;;;22.40;16.57;;;15.60;99.90;;;;;;5000660;28;20657;-51
2021/09/18 07:08:03;;;;;;;22.33;15.87;;;15.70;99.90;;;;;;4996542;28;21337;-51
2021/09/18 07:10:30;;;;;;;24.37;16.90;;;15.60;99.90;;;;;;4993616;28;20281;-51
2021/09/18 07:12:58;;;;;;;24.63;17.07;;;15.70;99.90;;;;;;4995193;28;20195;-52
2021/09/18 07:15:25;;;;;;;26.30;17.13;;;15.70;99.90;;;;;;4997024;28;20240;-51
2021/09/18 07:17:52;;;;;;;23.07;15.97;;;15.80;99.90;;;;;;4999392;28;20311;-51
2021/09/18 07:20:20;;;;;;;24.23;16.73;;;15.90;99.90;;;;;;5005960;28;20202;-52
2021/09/18 07:22:47;;;;;;;23.90;16.70;;;15.90;99.90;;;;;;5012251;28;20278;-51
2021/09/18 07:25:14;;;;;;;24.17;17.20;;;16.10;99.90;;;;;;5000608;28;20304;-52
2021/09/18 07:27:41;;;;;;;27.00;17.57;;;16.10;99.90;;;;;;4999153;28;20222;-52
2021/09/18 07:30:09;;;;;;;27.70;19.17;;;16.10;99.90;;;;;;4988349;28;20293;-52
2021/09/18 07:32:36;;;;;;;28.17;19.13;;;16.20;99.90;;;;;;5004067;28;20394;-52
2021/09/18 07:35:06;;;;;;;33.30;18.67;;;16.20;99.90;;;;;;4993176;28;20645;-52
2021/09/18 07:37:37;;;;;;;29.87;19.10;;;16.40;99.90;;;;;;4990975;28;20208;-52
2021/09/18 07:40:11;;;;;;;32.13;20.73;;;16.60;99.90;;;;;;4992892;28;20291;-52
2021/09/18 07:42:39;;;;;;;34.47;20.33;;;16.70;99.90;;;;;;5002684;28;20302;-53
2021/09/18 07:45:07;;;;;;;28.07;20.43;;;16.80;99.90;;;;;;5009288;28;20272;-52
2021/09/18 07:47:33;;;;;;;31.50;21.93;;;17.00;99.90;;;;;;4995794;28;20254;-52
2021/09/18 07:50:01;;;;;;;34.30;21.30;;;17.10;99.90;;;;;;4994809;28;20199;-51
2021/09/18 07:52:28;;;;;;;30.07;20.40;;;17.00;99.90;;;;;;5009493;28;20689;-52
2021/09/18 07:54:55;;;;;;;29.23;20.87;;;17.00;99.90;;;;;;5005676;28;20207;-52
2021/09/18 07:57:42;;;;;;;33.70;20.83;;;17.20;99.90;;;;;;5008924;28;20217;-52
2021/09/18 08:00:09;;;;;;;32.57;20.40;;;17.40;99.90;;;;;;5005928;28;20203;-52
2021/09/18 08:02:36;;;;;;;29.40;19.67;;;17.60;99.90;;;;;;5000677;28;20236;-52
2021/09/18 08:05:04;;;;;;;26.90;18.13;;;17.80;99.90;;;;;;5011081;28;20286;-52
2021/09/18 08:07:31;;;;;;;29.10;19.60;;;17.90;99.90;;;;;;5004805;28;20346;-52
2021/09/18 08:09:59;;;;;;;24.00;17.87;;;17.90;99.90;;;;;;4999746;28;20238;-52
2021/09/18 08:12:27;;;;;;;25.50;16.90;;;18.00;99.90;;;;;;5001346;28;20664;-52
2021/09/18 08:14:53;;;;;;;19.43;14.73;;;18.10;99.90;;;;;;5007732;28;20204;-52
2021/09/18 08:17:20;;;;;;;21.60;15.23;;;18.30;99.90;;;;;;5000971;28;20707;-52
2021/09/18 08:19:47;;;;;;;21.77;14.33;;;18.50;99.90;;;;;;5001425;28;20221;-52
2021/09/18 08:22:14;;;;;;;23.93;15.17;;;18.60;99.90;;;;;;4996391;28;20594;-52
2021/09/18 08:24:41;;;;;;;22.63;15.30;;;18.80;99.90;;;;;;5003964;28;20207;-52
2021/09/18 08:27:08;;;;;;;20.07;14.67;;;19.00;99.90;;;;;;5015244;28;20565;-52
2021/09/18 08:29:35;;;;;;;22.70;15.17;;;19.40;99.90;;;;;;4999930;28;20221;-52
2021/09/18 08:32:03;;;;;;;21.00;15.33;;;19.60;1.00;;;;;;5010535;28;20832;-52
2021/09/18 08:34:29;;;;;;;21.33;14.00;;;19.50;1.00;;;;;;5013956;28;20664;-52
2021/09/18 08:36:56;;;;;;;21.57;14.50;;;19.70;1.00;;;;;;5006136;28;20553;-52
2021/09/18 08:39:23;;;;;;;19.43;14.23;;;20.00;99.90;;;;;;5010127;28;20260;-52
2021/09/18 08:41:50;;;;;;;16.53;12.70;;;20.30;99.90;;;;;;5013326;28;20630;-52
2021/09/18 08:44:17;;;;;;;19.50;13.57;;;20.40;1.00;;;;;;4997392;28;20430;-52
2021/09/18 08:46:44;;;;;;;16.73;11.83;;;20.50;1.00;;;;;;5000488;28;20225;-52
2021/09/18 08:49:11;;;;;;;16.63;11.37;;;20.70;1.00;;;;;;5004307;28;20212;-52
2021/09/18 08:51:40;;;;;;;14.53;11.27;;;21.00;99.90;;;;;;4998733;28;20383;-52
2021/09/18 08:54:07;;;;;;;16.90;10.40;;;20.80;1.00;;;;;;5004032;28;20266;-52
2021/09/18 08:56:34;;;;;;;12.77;10.23;;;21.20;99.90;;;;;;5006514;28;20197;-52
2021/09/18 08:59:01;;;;;;;15.07;10.77;;;21.30;1.00;;;;;;5001099;28;20383;-52
2021/09/18 09:01:29;;;;;;;13.37;10.23;;;21.10;94.80;;;;;;4999948;28;20721;-52
2021/09/18 09:03:58;;;;;;;12.20;10.33;;;21.00;99.90;;;;;;5001219;28;20281;-51
2021/09/18 09:06:40;;;;;;;13.90;10.00;;;21.00;95.30;;;;;;5000031;28;20226;-50
2021/09/18 09:09:08;;;;;;;11.97;8.50;;;21.40;99.90;;;;;;5003847;28;20204;-50
2021/09/18 09:11:35;;;;;;;10.83;8.60;;;21.40;1.00;;;;;;4997160;28;20197;-51
2021/09/18 09:14:08;;;;;;;11.67;9.17;;;21.50;1.00;;;;;;5004199;28;20727;-51
2021/09/18 09:16:36;;;;;;;11.07;8.90;;;21.60;34.20;;;;;;5013581;28;20252;-51
2021/09/18 09:19:17;;;;;;;12.93;10.13;;;21.70;99.90;;;;;;5002905;28;20209;-51
2021/09/18 09:21:50;;;;;;;11.27;9.60;;;21.30;1.00;;;;;;5011006;28;20240;-51
2021/09/18 09:24:18;;;;;;;15.27;10.90;;;21.60;1.00;;;;;;4996172;28;20321;-51
2021/09/18 09:27:16;;;;;;;13.97;10.07;;;21.60;1.00;;;;;;5006337;28;20641;-51
2021/09/18 09:29:46;;;;;;;14.20;10.23;;;20.80;1.00;;;;;;4997712;28;20328;-51
2021/09/18 09:32:37;;;;;;;13.20;10.70;;;20.90;99.90;;;;;;4996238;28;20576;-51
2021/09/18 09:35:13;;;;;;;13.47;10.60;;;20.90;1.00;;;;;;5008681;28;20205;-51
2021/09/18 09:37:51;;;;;;;14.27;10.73;;;20.80;1.00;;;;;;5001679;28;20313;-50
2021/09/18 09:40:34;;;;;;;12.73;10.10;;;20.70;99.90;;;;;;4999661;28;20316;-50
2021/09/18 09:43:02;;;;;;;12.63;10.30;;;21.10;1.00;;;;;;5001862;28;20535;-52
2021/09/18 09:45:29;;;;;;;11.77;9.63;;;21.20;1.00;;;;;;5001772;28;20242;-52
2021/09/18 09:48:09;;;;;;;11.40;9.37;;;21.30;1.00;;;;;;4999937;28;20257;-52
2021/09/18 09:50:39;;;;;;;13.20;10.90;;;21.40;1.00;;;;;;5004224;28;20666;-52
2021/09/18 09:53:20;;;;;;;13.23;10.23;;;21.20;1.00;;;;;;5004687;28;20201;-51
2021/09/18 09:55:47;;;;;;;12.67;10.03;;;21.00;1.00;;;;;;4999241;28;20236;-52
2021/09/18 09:58:14;;;;;;;10.93;8.57;;;21.00;1.00;;;;;;4999028;28;20688;-51
2021/09/18 10:00:51;;;;;;;12.60;9.80;;;21.30;1.00;;;;;;5004552;28;20277;-52
2021/09/18 10:03:21;;;;;;;10.03;8.00;;;21.40;99.90;;;;;;5002600;28;20215;-52
2021/09/18 10:05:50;;;;;;;12.17;9.83;;;21.40;1.00;;;;;;5005233;28;20224;-52
2021/09/18 10:08:24;;;;;;;12.97;9.27;;;21.50;1.00;;;;;;5003489;28;20240;-52
2021/09/18 10:10:53;;;;;;;11.93;10.50;;;21.50;1.00;;;;;;5011863;28;20231;-51
2021/09/18 10:13:24;;;;;;;13.20;10.03;;;21.70;1.00;;;;;;5000475;28;20292;-52
2021/09/18 10:15:52;;;;;;;12.13;9.20;;;21.50;99.90;;;;;;5000398;28;20299;-52
2021/09/18 10:18:20;;;;;;;11.57;9.97;;;21.70;1.00;;;;;;4999394;28;20224;-51
2021/09/18 10:23:24;;;;;;;15.33;11.43;;;21.60;1.00;;;;;;5015020;28;20628;-52
2021/09/18 10:25:56;;;;;;;14.27;10.90;;;21.40;1.00;;;;;;5010283;28;20672;-52
2021/09/18 10:28:29;;;;;;;13.80;10.33;;;21.50;1.00;;;;;;5009801;28;20273;-51
2021/09/18 10:30:59;;;;;;;10.77;8.70;;;21.50;1.00;;;;;;5011276;28;20229;-51
2021/09/18 10:33:40;;;;;;;7.80;6.67;;;21.60;1.00;;;;;;5008330;28;20215;-51
2021/09/18 10:36:15;;;;;;;7.40;5.63;;;21.60;1.00;;;;;;5003248;28;20264;-52
2021/09/18 10:38:44;;;;;;;8.77;7.67;;;21.70;99.90;;;;;;5016631;28;20300;-52
2021/09/18 10:41:14;;;;;;;9.10;7.57;;;21.70;1.00;;;;;;5014510;28;20324;-51
2021/09/18 10:43:43;;;;;;;11.27;7.73;;;21.80;1.00;;;;;;5015196;28;20283;-52
2021/09/18 10:46:47;;;;;;;10.10;8.83;;;21.90;1.00;;;;;;5014148;28;20278;-52
2021/09/18 10:49:32;;;;;;;12.53;9.07;;;21.80;1.00;;;;;;5013061;28;20243;-52
2021/09/18 10:52:17;;;;;;;16.77;9.67;;;22.00;1.00;;;;;;5014626;28;20227;-52
2021/09/18 10:54:59;;;;;;;11.07;8.67;;;21.90;1.00;;;;;;5010960;28;20264;-52
2021/09/18 10:57:27;;;;;;;10.30;8.40;;;21.80;1.00;;;;;;5011902;28;20229;-52
2021/09/18 10:59:54;;;;;;;9.33;7.97;;;21.90;1.00;;;;;;5008627;28;20307;-52
2021/09/18 11:02:30;;;;;;;10.53;8.10;;;21.90;1.00;;;;;;5003226;28;20236;-52
2021/09/18 11:04:58;;;;;;;9.73;8.07;;;21.90;1.00;;;;;;5010308;28;20275;-52
2021/09/18 11:07:41;;;;;;;11.00;8.80;;;22.00;1.00;;;;;;5005178;28;20323;-51
2021/09/18 11:10:33;;;;;;;11.30;9.37;;;22.30;1.20;;;;;;4999524;28;20278;-52
2021/09/18 11:13:10;;;;;;;10.83;8.33;;;22.20;1.00;;;;;;5021402;28;20205;-52
2021/09/18 11:15:43;;;;;;;10.67;8.63;;;22.10;1.00;;;;;;5011865;28;20201;-51
2021/09/18 11:18:15;;;;;;;9.20;7.50;;;22.20;1.00;;;;;;5002339;28;20287;-52
2021/09/18 11:20:43;;;;;;;9.23;7.70;;;22.40;99.90;;;;;;5003494;28;20847;-52
2021/09/18 11:23:10;;;;;;;9.40;6.80;;;22.30;77.60;;;;;;5007911;28;20628;-51
2021/09/18 11:25:45;;;;;;;6.93;5.77;;;22.50;1.00;;;;;;5010637;28;20578;-52
2021/09/18 11:28:15;;;;;;;6.97;6.23;;;22.80;1.00;;;;;;5002117;28;20219;-52
2021/09/18 11:30:52;;;;;;;8.63;6.90;;;23.10;84.10;;;;;;5009912;28;20308;-51
2021/09/18 11:33:23;;;;;;;10.80;7.17;;;23.10;1.00;;;;;;5005543;28;20259;-52
2021/09/18 11:36:01;;;;;;;8.30;6.17;;;23.10;1.00;;;;;;5002415;28;20941;-52
2021/09/18 11:38:31;;;;;;;6.97;5.63;;;22.80;1.00;;;;;;5009837;28;20581;-52
2021/09/18 11:41:14;;;;;;;6.10;5.50;;;22.90;24.10;;;;;;5013254;28;20244;-52
2021/09/18 11:43:42;;;;;;;8.33;6.07;;;22.70;1.00;;;;;;5008456;28;20497;-52
2021/09/18 11:46:10;;;;;;;8.40;6.30;;;23.00;1.00;;;;;;5015862;28;20292;-51
2021/09/18 11:48:37;;;;;;;7.63;6.07;;;23.10;1.00;;;;;;5006825;28;20558;-52
2021/09/18 11:51:06;;;;;;;8.07;6.10;;;23.50;1.00;;;;;;5013245;28;20275;-52
2021/09/18 11:53:34;;;;;;;7.87;6.77;;;23.20;1.00;;;;;;5007535;28;20645;-52
2021/09/18 11:56:01;;;;;;;7.67;6.13;;;23.70;1.00;;;;;;5007417;28;20518;-52
2021/09/18 11:58:30;;;;;;;8.43;6.43;;;24.00;1.00;;;;;;5009608;28;20200;-51
2021/09/18 12:01:02;;;;;;;7.93;6.33;;;24.10;1.00;;;;;;5019817;28;20196;-52
2021/09/18 12:03:35;;;;;;;6.87;4.67;;;24.40;1.00;;;;;;5004630;28;20722;-52
2021/09/18 12:06:07;;;;;;;5.67;4.47;;;24.70;1.00;;;;;;5004487;28;20316;-51
2021/09/18 12:08:36;;;;;;;5.03;4.03;;;24.70;1.00;;;;;;5007029;28;20234;-52
2021/09/18 12:11:09;;;;;;;6.90;5.13;;;25.10;1.00;;;;;;5008006;28;20246;-52
2021/09/18 12:13:38;;;;;;;4.90;3.60;;;24.80;99.90;;;;;;5003845;28;20195;-52
2021/09/18 12:16:06;;;;;;;4.27;3.70;;;25.10;1.00;;;;;;5005657;28;20252;-52
2021/09/18 12:18:38;;;;;;;6.83;4.20;;;25.30;99.90;;;;;;5002818;28;20274;-52
2021/09/18 12:21:09;;;;;;;6.87;4.50;;;25.30;99.90;;;;;;5012591;28;20295;-52
2021/09/18 12:23:43;;;;;;;6.10;4.27;;;25.30;99.90;;;;;;5010657;28;20329;-52
2021/09/18 12:26:11;;;;;;;4.80;3.73;;;25.60;99.90;;;;;;5000453;28;20602;-52
2021/09/18 12:28:38;;;;;;;4.23;2.77;;;25.50;99.90;;;;;;5000889;28;20283;-52
2021/09/18 12:31:16;;;;;;;2.17;1.97;;;25.50;99.90;;;;;;5012152;28;20230;-52
2021/09/18 12:33:44;;;;;;;3.27;1.90;;;25.70;99.90;;;;;;5010472;28;20267;-52
2021/09/18 12:36:24;;;;;;;2.00;1.73;;;25.60;35.20;;;;;;5013327;28;20672;-52
2021/09/18 12:38:55;;;;;;;3.53;2.10;;;25.60;99.90;;;;;;5013533;28;20291;-52
2021/09/18 12:41:24;;;;;;;2.03;1.80;;;25.10;42.90;;;;;;5008819;28;20249;-52
2021/09/18 12:44:11;;;;;;;4.57;2.23;;;25.60;99.90;;;;;;5020386;28;20285;-52
2021/09/18 12:46:43;;;;;;;3.23;2.00;;;25.50;99.90;;;;;;5004578;28;20299;-52